Gasquet, California
Current Conditions -  °F | °C
As of 11:56 AM on Saturday 25 Oct 2014 (Local Time) from KCEC Reporting Station
Light Rain Light Rain  
Wind Chill: 61°   Ceiling: 2400
Heat Index: 61°   Visibility: 4mi
Dew Point: 58°   Wind: 33mph
Humidity: 90%   Direction: 190°S
Pressure: 29.71"   Gusts: 43mph
Location:  41.85°N, 123.97°W
Report Text: KCEC 251856Z AUTO 19029G37KT 4SM -RA BR BKN024 OVC033 16/14 A2971 RMK AO2 PK WND 19042/1819 SLP059 P0003 T01610144
Loading
Personal Weather Stations






























Interactive Weather Map
Tropical Storm Tracking
New forecast layout! Learn more

10-Day Weather Forecast

Advertisements
Track Severe Weather on mobile